Current Weather

Metro Oakland Intl

Oakland, California (KOAK)

Report from: Friday, April 19, 2024 2:53 AM PDT
Current time: Friday, April 19, 2024 3:24 AM PDT

Nearby weather – Weather history – Daily summaries
Weather forecast

Temperature10.6°C (51.1°F)
Dew point9.4°C (48.9°F)
Winds 6 kts (3.1 m/s, 6.9 mph) Northwest (310°)
Visibility10 mi. (16.1 km)
Clouds Few clouds 1,200 ft. (366 m)
Scattered clouds 15,000 ft. (4,572 m)
Altimeter29.98 in.Hg (1015 mB)
Relative humidity92 %
Density altitude-418 ft. (-127 m)
Sea-level pressure101.5 kPa (1015 mB, 29.97 in.Hg)
Remarks Automated weather observing station with precipitation discriminator
Flight conditions Visual Meteorological Conditions
Raw dataKOAK 190953Z 31006KT 10SM FEW012 SCT150 11/09 A2998 RMK AO2 SLP150 T01060094
An error has occurred. This application may no longer respond until reloaded. Reload 🗙